Latest Weather Observations for Brewon

IDN60801

Issued at 3:33 pm EDT Sunday 19 November 2017 (issued every 30 minutes, with the page automatically refreshed every 10 minutes)

About weather observations | Map of weather stations | Latest weather observations for NSW | Other Formats
Station Details ID: 051162 Name: BREWON AWS Lat: -30.24 Lon: 147.53 Height: 130.0 m
Data from the previous 72 hours. | See also: Recent months at Brewon
Date/Time
EDT
Temp
°C
App
Temp
°C
Dew
Point
°C
Rel
Hum
%
Delta-T
°C
Wind Press
QNH
hPa
Press
MSL
hPa
Rain since
9am
mm
Dir  Spd
km/h
Gust
km/h
Spd
kts
Gust
kts
19/03:30pm 26.5 - 13.3 44 7.8 - - - - - - - 0.0
19/03:00pm 25.7 - 12.9 45 7.5 - - - - - - - 0.0
19/02:30pm 25.6 - 13.8 48 7.0 - - - - - - - 0.0
19/02:00pm 24.3 - 14.1 53 6.0 - - - - - - - 0.0
19/01:30pm 21.5 - 15.1 67 3.8 - - - - - - - 0.0
19/01:00pm 24.0 - 14.1 54 5.9 - - - - - - - 0.0
19/12:30pm 25.1 - 13.6 49 6.8 - - - - - - - 0.0
19/12:00pm 23.8 - 13.6 52 6.0 - - - - - - - 0.0
19/11:30am 22.6 - 13.9 58 5.1 - - - - - - - 0.0
19/11:00am 21.6 - 13.8 61 4.5 - - - - - - - 0.0
19/10:30am 21.9 - 14.8 64 4.2 - - - - - - - 0.0
19/10:00am 20.6 - 14.5 68 3.6 - - - - - - - 0.0
19/09:30am 19.6 - 14.4 72 3.0 - - - - - - - 0.0
19/09:00am 19.0 - 14.1 73 2.8 - - - - - - - 1.0
19/08:30am 19.1 - 14.6 75 2.6 - - - - - - - 1.0
19/08:00am 18.2 - 14.3 78 2.3 - - - - - - - 0.8
19/07:30am 17.9 - 14.6 81 1.9 - - - - - - - 0.8
19/07:00am 17.3 - 14.6 84 1.6 - - - - - - - 0.8
19/06:30am 16.9 - 14.7 87 1.3 - - - - - - - 0.8
19/06:00am 16.9 - 14.5 86 1.4 - - - - - - - 0.0
19/05:30am 17.3 - 14.0 81 1.9 - - - - - - - 0.0
19/05:00am 17.4 - 14.1 81 1.9 - - - - - - - 0.0
19/04:30am 17.4 - 14.3 82 1.8 - - - - - - - 0.0
19/04:00am 17.5 - 14.4 82 1.8 - - - - - - - 0.0
19/03:30am 17.7 - 14.6 82 1.8 - - - - - - - 0.0
19/03:00am 17.9 - 14.4 80 2.0 - - - - - - - 0.0
19/02:30am 18.6 - 14.7 78 2.3 - - - - - - - 0.0
19/02:00am 18.9 - 14.8 77 2.4 - - - - - - - 0.0
19/01:30am 19.1 - 15.2 78 2.3 - - - - - - - 0.0
19/01:00am 19.0 - 15.3 79 2.2 - - - - - - - 0.0
19/12:30am 19.2 - 15.5 79 2.2 - - - - - - - 0.0
19/12:00am 19.0 - 15.3 79 2.2 - - - - - - - 0.0
 
Date/Time
EDT
Temp
°C
App
Temp
°C
Dew
Point
°C
Rel
Hum
%
Delta-T
°C
Wind Press
QNH
hPa
Press
MSL
hPa
Rain since
9am
mm
Dir  Spd
km/h
Gust
km/h
Spd
kts
Gust
kts
18/11:30pm 19.1 - 15.0 77 2.4 - - - - - - - 0.0
18/11:00pm 19.4 - 14.4 73 2.9 - - - - - - - 0.0
18/10:30pm 20.0 - 14.1 69 3.4 - - - - - - - 0.0
18/10:00pm 20.6 - 13.8 65 3.9 - - - - - - - 0.0
18/09:30pm 20.9 - 14.1 65 4.0 - - - - - - - 0.0
18/09:00pm 21.4 - 13.8 62 4.4 - - - - - - - 0.0
18/08:30pm 21.9 - 13.0 57 5.1 - - - - - - - 0.0
18/08:00pm 22.7 - 14.8 61 4.7 - - - - - - - 0.0
18/07:30pm 23.3 - 14.3 57 5.3 - - - - - - - 0.0
18/07:00pm 24.1 - 14.8 56 5.6 - - - - - - - 0.0
18/06:30pm 25.0 - 14.5 52 6.3 - - - - - - - 0.0
18/06:00pm 25.5 - 13.7 48 7.0 - - - - - - - 0.0
18/05:30pm 26.1 - 14.9 50 6.8 - - - - - - - 0.0
18/05:00pm 27.5 - 15.5 48 7.4 - - - - - - - 0.0
18/04:30pm 25.8 - 14.9 51 6.6 - - - - - - - 0.0
18/04:00pm 26.3 - 16.0 53 6.3 - - - - - - - 0.0
18/03:30pm 25.8 - 15.2 52 6.4 - - - - - - - 0.0
18/03:00pm 25.4 - 16.8 59 5.3 - - - - - - - 0.0
18/02:30pm 24.7 - 16.7 61 5.0 - - - - - - - 0.0
18/02:00pm 24.3 - 17.1 64 4.5 - - - - - - - 0.0
18/01:30pm 23.2 - 17.2 69 3.7 - - - - - - - 0.0
18/01:00pm 23.3 - 16.8 67 4.0 - - - - - - - 0.0
18/12:30pm 23.2 - 17.0 68 3.8 - - - - - - - 0.0
18/12:00pm 22.8 - 17.0 70 3.6 - - - - - - - 0.0
18/11:30am 22.1 - 16.6 71 3.4 - - - - - - - 0.0
18/11:00am 21.8 - 17.2 75 2.8 - - - - - - - 0.0
18/10:30am 21.3 - 16.7 75 2.8 - - - - - - - 0.0
18/10:00am 20.3 - 16.3 78 2.4 - - - - - - - 0.0
18/09:30am 20.0 - 16.6 81 2.1 - - - - - - - 0.0
18/09:00am 19.3 - 16.2 82 1.9 - - - - - - - 21.6
18/08:30am 19.4 - 16.6 84 1.7 - - - - - - - 21.6
18/08:00am 18.5 - 16.3 87 1.3 - - - - - - - 21.6
18/07:30am 17.1 - 16.0 93 0.7 - - - - - - - 21.6
18/07:00am 16.8 - 16.0 95 0.5 - - - - - - - 21.6
18/06:30am 16.6 - 16.0 96 0.4 - - - - - - - 21.6
18/06:00am 16.4 - 15.9 97 0.3 - - - - - - - 21.6
18/05:30am 16.4 - 15.9 97 0.3 - - - - - - - 21.6
18/05:00am 16.6 - 16.1 97 0.3 - - - - - - - 21.6
18/04:30am 16.5 - 15.9 96 0.4 - - - - - - - 21.6
18/04:00am 16.5 - 15.7 95 0.5 - - - - - - - 21.6
18/03:30am 16.7 - 15.7 94 0.6 - - - - - - - 21.6
18/03:00am 17.0 - 15.7 92 0.8 - - - - - - - 21.6
18/02:30am 17.3 - 15.6 90 1.0 - - - - - - - 21.6
18/02:00am 17.4 - 15.4 88 1.2 - - - - - - - 21.6
18/01:30am 17.4 - 15.4 88 1.2 - - - - - - - 21.6
18/01:00am 17.4 - 15.4 88 1.2 - - - - - - - 21.6
18/12:30am 17.9 - 15.3 85 1.5 - - - - - - - 21.6
18/12:00am 18.2 - 15.5 84 1.6 - - - - - - - 21.6
 
Date/Time
EDT
Temp
°C
App
Temp
°C
Dew
Point
°C
Rel
Hum
%
Delta-T
°C
Wind Press
QNH
hPa
Press
MSL
hPa
Rain since
9am
mm
Dir  Spd
km/h
Gust
km/h
Spd
kts
Gust
kts
17/11:30pm 18.2 - 15.3 83 1.7 - - - - - - - 21.6
17/11:00pm 18.3 - 15.6 84 1.6 - - - - - - - 21.6
17/10:30pm 18.1 - 15.7 86 1.4 - - - - - - - 21.6
17/10:00pm 18.5 - 15.4 82 1.8 - - - - - - - 21.6
17/09:30pm 18.6 - 15.7 83 1.7 - - - - - - - 21.6
17/09:00pm 18.7 - 15.4 81 2.0 - - - - - - - 21.6
17/08:30pm 19.0 - 15.3 79 2.2 - - - - - - - 21.6
17/08:00pm 18.7 - 15.9 84 1.7 - - - - - - - 21.6
17/07:30pm 18.9 - 16.0 83 1.7 - - - - - - - 21.4
17/07:00pm 19.9 - 15.1 74 2.8 - - - - - - - 21.0
17/06:30pm 19.7 - 15.6 77 2.4 - - - - - - - 21.0
17/06:00pm 18.8 - 16.8 88 1.2 - - - - - - - 21.0
17/05:30pm 18.7 - 16.5 87 1.3 - - - - - - - 18.4
17/05:00pm 19.1 - 16.7 86 1.5 - - - - - - - 16.8
17/04:30pm 17.9 - 17.1 95 0.5 - - - - - - - 16.4
17/04:00pm 19.3 - 18.6 96 0.4 - - - - - - - 16.0
17/03:30pm 17.3 - 16.8 97 0.3 - - - - - - - 16.0
17/03:00pm 18.0 - 16.5 91 0.9 - - - - - - - 5.0
17/02:30pm 22.9 - 18.7 77 2.7 - - - - - - - 0.4
17/02:25pm 24.0 - 17.7 68 3.9 - - - - - - - 0.2
17/02:00pm 29.8 - 17.3 47 7.9 - - - - - - - 0.0
17/01:30pm 30.2 - 17.3 46 8.2 - - - - - - - 0.0
17/01:00pm 29.8 - 17.6 48 7.8 - - - - - - - 0.0
17/12:30pm 28.6 - 16.8 48 7.4 - - - - - - - 0.0
17/12:00pm 27.9 - 17.7 53 6.5 - - - - - - - 0.0
17/11:30am 27.0 - 17.5 56 6.0 - - - - - - - 0.0
17/11:00am 26.4 - 18.0 60 5.3 - - - - - - - 0.0
17/10:30am 25.1 - 17.6 63 4.7 - - - - - - - 0.0
17/10:00am 24.3 - 17.5 66 4.3 - - - - - - - 0.0
17/09:30am 23.3 - 17.7 71 3.5 - - - - - - - 0.0
17/09:00am 22.6 - 17.9 75 2.9 - - - - - - - 9.4
17/08:30am 20.9 - 17.3 80 2.2 - - - - - - - 9.4
17/08:00am 19.6 - 17.4 87 1.4 - - - - - - - 9.4
17/07:30am 18.6 - 16.9 90 1.0 - - - - - - - 9.4
17/07:00am 17.1 - 16.5 96 0.4 - - - - - - - 9.4
17/06:30am 16.1 - 15.8 98 0.2 - - - - - - - 9.4
17/06:00am 16.2 - 15.9 98 0.2 - - - - - - - 9.4
17/05:30am 16.3 - 15.8 97 0.3 - - - - - - - 9.4
17/05:00am 16.6 - 16.1 97 0.3 - - - - - - - 9.4
17/04:30am 16.9 - 16.6 98 0.2 - - - - - - - 9.4
17/04:00am 16.4 - 15.9 97 0.3 - - - - - - - 9.4
17/03:30am 16.8 - 16.3 97 0.3 - - - - - - - 9.4
17/03:00am 16.7 - 16.2 97 0.3 - - - - - - - 9.4
17/02:30am 17.0 - 16.0 94 0.6 - - - - - - - 9.4
17/02:00am 17.7 - 16.2 91 0.9 - - - - - - - 9.4
17/01:30am 18.4 - 16.7 90 1.0 - - - - - - - 9.4
17/01:00am 18.9 - 16.9 88 1.2 - - - - - - - 9.4
17/12:30am 19.6 - 17.0 85 1.6 - - - - - - - 9.4
17/12:00am 19.6 - 17.2 86 1.5 - - - - - - - 9.4
 
Date/Time
EDT
Temp
°C
App
Temp
°C
Dew
Point
°C
Rel
Hum
%
Delta-T
°C
Wind Press
QNH
hPa
Press
MSL
hPa
Rain since
9am
mm
Dir  Spd
km/h
Gust
km/h
Spd
kts
Gust
kts
16/11:30pm 19.9 - 17.3 85 1.6 - - - - - - - 9.4
16/11:00pm 19.9 - 17.3 85 1.6 - - - - - - - 9.4
16/10:30pm 20.2 - 17.6 85 1.6 - - - - - - - 9.4
16/10:00pm 20.2 - 17.4 84 1.7 - - - - - - - 9.4
16/09:30pm 20.9 - 17.5 81 2.1 - - - - - - - 9.4
16/09:00pm 21.3 - 17.1 77 2.6 - - - - - - - 9.4
16/08:30pm 22.2 - 17.1 73 3.1 - - - - - - - 9.4
16/08:00pm 22.9 - 16.7 68 3.8 - - - - - - - 9.4
16/07:30pm 23.7 - 16.2 63 4.6 - - - - - - - 9.4
16/07:00pm 24.5 - 16.0 59 5.2 - - - - - - - 9.4
16/06:30pm 25.0 - 15.9 57 5.6 - - - - - - - 9.4
16/06:00pm 25.5 - 17.4 61 5.1 - - - - - - - 9.4
16/05:30pm 24.3 - 17.1 64 4.5 - - - - - - - 9.4
16/05:00pm 22.9 - 18.4 76 2.8 - - - - - - - 9.4
16/04:30pm 22.1 - 18.5 80 2.3 - - - - - - - 9.4
16/04:00pm 21.9 - 18.3 80 2.3 - - - - - - - 9.4

Other Formats:

Comma delimited format used in spreadsheet applications
http://www.bom.gov.au/fwo/IDN60801/IDN60801.94793.axf

JavaScript Object Notation format (JSON) in row-major order
http://www.bom.gov.au/fwo/IDN60801/IDN60801.94793.json